Time;durP1;ratioP1;P1;durP2;ratioP2;P2;SDS_P1;SDS_P2;PMS_P1;PMS_P2;Temp;Humidity;BMP_temperature;BMP_pressure;BME280_temperature;BME280_humidity;BME280_pressure;Samples;Min_cycle;Max_cycle;Signal;HPM_P1;HPM_P2
2022/10/18 05:56:57;;;;;;;28.50;13.68;;;;;;;15.15;90.20;101948.56;5323774;23;20498;-71
2022/10/18 05:59:24;;;;;;;26.55;14.65;;;;;;;15.21;89.61;101952.13;4989777;28;20047;-69
2022/10/18 06:01:52;;;;;;;26.30;14.05;;;;;;;15.15;90.13;101962.34;4989147;28;20042;-68
2022/10/18 06:04:21;;;;;;;27.17;13.68;;;;;;;15.16;90.88;101961.25;4986679;28;20046;-68
2022/10/18 06:07:26;;;;;;;30.77;14.88;;;;;;;15.28;90.38;101966.47;4986368;28;20051;-68
2022/10/18 06:09:58;;;;;;;22.25;12.43;;;;;;;15.34;89.17;101959.03;4978674;28;20058;-69
2022/10/18 06:12:26;;;;;;;25.63;13.38;;;;;;;15.40;89.11;101960.66;4994377;28;20055;-69
2022/10/18 06:14:54;;;;;;;22.35;12.85;;;;;;;15.47;88.84;101968.63;4994549;28;20054;-69
2022/10/18 06:17:22;;;;;;;25.92;13.38;;;;;;;15.54;89.16;101966.44;4993245;28;20050;-69
2022/10/18 06:19:49;;;;;;;32.30;13.60;;;;;;;15.66;88.36;101963.34;4993808;28;20054;-69
2022/10/18 06:22:18;;;;;;;30.17;14.00;;;;;;;15.78;87.68;101966.63;4993912;28;20050;-69
2022/10/18 06:24:46;;;;;;;28.67;13.18;;;;;;;15.91;86.83;101964.34;4994320;28;20073;-69
2022/10/18 06:27:13;;;;;;;27.23;13.90;;;;;;;15.89;86.67;101959.09;4993058;28;20053;-69
2022/10/18 06:29:41;;;;;;;28.13;13.32;;;;;;;16.12;86.58;101954.91;4993558;28;20050;-68
2022/10/18 06:32:09;;;;;;;31.40;14.52;;;;;;;16.15;86.23;101958.19;4993754;28;20046;-68
2022/10/18 06:34:36;;;;;;;25.95;13.00;;;;;;;16.28;85.00;101963.09;4993779;28;20046;-68
2022/10/18 06:37:04;;;;;;;22.92;12.68;;;;;;;16.44;84.53;101965.78;4992948;28;20480;-68
2022/10/18 06:39:32;;;;;;;26.20;14.05;;;;;;;16.46;84.55;101969.06;4993536;28;20051;-68
2022/10/18 06:42:00;;;;;;;30.20;14.32;;;;;;;16.51;84.51;101961.59;4993391;28;20050;-70
2022/10/18 06:44:28;;;;;;;25.15;12.88;;;;;;;16.44;83.92;101971.31;4992329;28;20043;-69
2022/10/18 06:46:55;;;;;;;31.40;14.13;;;;;;;16.56;83.57;101963.47;4993561;28;20046;-70
2022/10/18 06:49:23;;;;;;;26.30;13.60;;;;;;;16.91;81.86;101969.84;4993503;28;20038;-70
2022/10/18 06:51:52;;;;;;;26.73;13.30;;;;;;;17.06;81.54;101970.88;4993863;28;20093;-70
2022/10/18 06:54:20;;;;;;;29.15;14.05;;;;;;;17.09;80.63;101978.59;4992803;28;20042;-70
2022/10/18 06:56:48;;;;;;;23.17;12.95;;;;;;;17.34;79.54;101976.69;4988656;28;20083;-70
2022/10/18 06:59:17;;;;;;;30.77;14.57;;;;;;;17.37;79.70;101978.88;4992303;28;20050;-70
2022/10/18 07:01:44;;;;;;;27.88;14.23;;;;;;;17.47;79.90;101977.94;4992630;28;20042;-70
2022/10/18 07:04:12;;;;;;;28.65;14.75;;;;;;;17.46;80.82;101981.84;4993136;28;20512;-70
2022/10/18 07:06:40;;;;;;;25.98;14.63;;;;;;;17.32;80.61;101978.94;4992315;28;20046;-68
2022/10/18 07:09:07;;;;;;;29.45;16.10;;;;;;;17.42;80.60;101983.53;4983120;28;20046;-71
2022/10/18 07:11:35;;;;;;;32.00;15.43;;;;;;;17.79;79.93;101986.75;4988605;28;20065;-70
2022/10/18 07:14:03;;;;;;;31.98;16.33;;;;;;;17.83;78.62;101988.63;4992872;28;20354;-70
2022/10/18 07:16:32;;;;;;;35.78;16.10;;;;;;;17.95;78.25;101993.72;4990337;28;20772;-70
2022/10/18 07:19:00;;;;;;;32.03;15.05;;;;;;;18.04;77.80;101982.00;4991169;28;20050;-70
2022/10/18 07:21:28;;;;;;;30.15;15.98;;;;;;;18.18;77.49;101982.94;4991635;28;20050;-69
2022/10/18 07:23:56;;;;;;;31.02;16.55;;;;;;;18.31;77.10;101994.41;4991481;28;20045;-69
2022/10/18 07:26:30;;;;;;;33.80;15.60;;;;;;;18.65;75.17;101985.88;4990835;28;20057;-69
2022/10/18 07:29:09;;;;;;;26.35;14.18;;;;;;;18.77;74.17;101984.59;4990146;28;20070;-68
2022/10/18 07:31:37;;;;;;;32.03;16.02;;;;;;;18.93;74.70;101985.97;4991339;28;20067;-68
2022/10/18 07:34:07;;;;;;;27.90;15.32;;;;;;;19.01;73.93;101984.47;4992004;28;20050;-71
2022/10/18 07:36:35;;;;;;;34.65;15.25;;;;;;;19.25;72.67;101994.63;4991868;28;20050;-69
2022/10/18 07:39:03;;;;;;;27.35;15.07;;;;;;;19.74;70.81;101995.09;4990822;28;20042;-69
2022/10/18 07:41:32;;;;;;;28.25;15.68;;;;;;;20.20;69.02;101984.19;4991929;28;20473;-70
2022/10/18 07:44:01;;;;;;;26.55;14.15;;;;;;;20.97;66.78;101986.31;4992861;28;20416;-69
2022/10/18 07:46:29;;;;;;;27.40;14.48;;;;;;;20.56;65.34;101985.31;4992754;28;20065;-69
2022/10/18 07:48:59;;;;;;;27.55;14.02;;;;;;;20.74;64.94;101982.69;4992596;28;20050;-70
2022/10/18 07:51:29;;;;;;;26.30;13.50;;;;;;;20.61;65.71;101971.31;4987018;28;20050;-69
2022/10/18 07:53:58;;;;;;;28.63;14.43;;;;;;;20.80;64.38;101970.28;4983035;28;20046;-69
2022/10/18 07:56:25;;;;;;;26.60;14.50;;;;;;;20.74;64.68;101968.78;4992522;28;20042;-68
2022/10/18 07:58:55;;;;;;;26.45;14.63;;;;;;;20.76;65.43;101972.06;4991089;28;20520;-68
2022/10/18 08:01:24;;;;;;;30.90;15.10;;;;;;;20.64;65.41;101970.66;4991722;28;20408;-68
2022/10/18 08:03:52;;;;;;;30.48;14.88;;;;;;;20.63;65.46;101973.78;4991839;28;20145;-68
2022/10/18 08:06:21;;;;;;;27.95;14.10;;;;;;;20.43;65.44;101972.31;4991440;28;20061;-68
2022/10/18 08:08:49;;;;;;;28.98;14.10;;;;;;;20.61;66.33;101976.03;4991829;28;20051;-68
2022/10/18 08:11:19;;;;;;;29.13;15.30;;;;;;;20.57;64.72;101986.16;4991180;28;20073;-68
2022/10/18 08:13:47;;;;;;;26.45;14.30;;;;;;;20.79;65.81;101975.06;4985594;28;20042;-68
2022/10/18 08:16:35;;;;;;;34.65;15.75;;;;;;;20.93;64.17;101986.13;4992254;28;20046;-68
2022/10/18 08:19:03;;;;;;;27.58;13.85;;;;;;;21.28;63.65;101981.91;4991236;28;20046;-70
2022/10/18 08:21:31;;;;;;;26.60;12.65;;;;;;;21.34;62.09;101981.47;4984143;28;20382;-69
2022/10/18 08:23:58;;;;;;;24.05;13.02;;;;;;;21.38;62.75;101984.44;4984733;28;20062;-69
2022/10/18 08:26:26;;;;;;;25.13;14.10;;;;;;;21.80;61.60;101983.31;4992216;28;20054;-69
2022/10/18 08:28:54;;;;;;;31.92;15.52;;;;;;;21.85;62.55;101997.91;4985133;28;20045;-69
2022/10/18 08:31:41;;;;;;;26.42;14.40;;;;;;;21.77;62.36;101995.09;4980405;28;20511;-69
2022/10/18 08:34:09;;;;;;;28.83;14.30;;;;;;;21.62;61.94;101992.38;4991050;28;20053;-68
2022/10/18 08:36:37;;;;;;;27.70;14.68;;;;;;;21.89;61.67;101992.50;4991761;28;20046;-70
2022/10/18 08:39:04;;;;;;;30.20;14.80;;;;;;;21.50;62.49;101988.56;4991118;28;20053;-68
2022/10/18 08:42:01;;;;;;;28.15;12.93;;;;;;;21.81;62.05;101990.53;4991932;28;20051;-69
2022/10/18 08:44:32;;;;;;;30.30;15.45;;;;;;;21.71;62.75;101986.88;4971289;28;20082;-70
2022/10/18 08:47:09;;;;;;;23.85;13.43;;;;;;;21.65;63.42;101982.56;4991587;28;20062;-69
2022/10/18 08:49:45;;;;;;;31.10;15.00;;;;;;;21.96;62.28;101978.94;4991117;28;20054;-70
2022/10/18 08:52:20;;;;;;;30.10;15.57;;;;;;;22.00;61.77;101979.91;4991769;28;20049;-70
2022/10/18 08:54:47;;;;;;;34.47;16.73;;;;;;;22.23;62.09;101978.94;4990585;28;20050;-69
2022/10/18 08:57:17;;;;;;;32.60;14.70;;;;;;;22.14;60.48;101968.63;4980579;28;20050;-70
2022/10/18 08:59:44;;;;;;;26.77;14.10;;;;;;;22.02;60.74;101974.84;4984345;28;20053;-70
2022/10/18 09:02:18;;;;;;;26.63;14.18;;;;;;;22.13;59.75;101968.94;4991848;28;20596;-69
2022/10/18 09:04:51;;;;;;;29.10;15.20;;;;;;;22.44;59.49;101970.78;4991222;28;20050;-70
2022/10/18 09:07:50;;;;;;;23.15;12.85;;;;;;;22.65;58.40;101970.97;4991593;28;20413;-70
2022/10/18 09:10:41;;;;;;;32.63;14.63;;;;;;;22.90;56.89;101970.44;4989257;28;20054;-69
2022/10/18 09:13:29;;;;;;;28.20;15.02;;;;;;;22.80;58.08;101972.44;4991685;28;20073;-69
2022/10/18 09:16:09;;;;;;;31.58;15.20;;;;;;;22.77;58.18;101967.50;4976812;28;20050;-69
2022/10/18 09:18:59;;;;;;;25.05;14.05;;;;;;;22.45;59.47;101963.22;4994182;28;20165;-69
2022/10/18 09:21:35;;;;;;;30.17;15.10;;;;;;;22.72;57.55;101969.66;4994951;28;20038;-69
2022/10/18 09:24:02;;;;;;;26.90;14.80;;;;;;;22.83;56.85;101951.44;4995397;28;20043;-69
2022/10/18 09:26:42;;;;;;;25.52;13.50;;;;;;;22.96;56.39;101955.16;4993408;28;20435;-69
2022/10/18 09:29:21;;;;;;;31.55;16.23;;;;;;;22.94;56.15;101957.47;4985921;28;20062;-69
2022/10/18 09:32:20;;;;;;;28.20;13.05;;;;;;;23.09;55.81;101965.31;4980723;28;20051;-76
2022/10/18 09:35:04;;;;;;;33.00;14.55;;;;;;;22.78;57.02;101949.59;4995262;28;20405;-76
2022/10/18 09:37:33;;;;;;;24.40;13.48;;;;;;;22.79;56.55;101953.22;4994424;28;20046;-76
2022/10/18 09:40:29;;;;;;;23.00;13.25;;;;;;;22.80;56.48;101952.91;4992958;28;20054;-77
2022/10/18 09:43:02;;;;;;;27.35;14.75;;;;;;;22.51;57.90;101948.81;4984789;28;20057;-75
2022/10/18 09:45:34;;;;;;;28.65;14.75;;;;;;;22.60;57.53;101943.25;4995371;28;20034;-76
2022/10/18 09:48:04;;;;;;;28.35;14.70;;;;;;;22.66;57.81;101935.50;4994676;28;20049;-76
2022/10/18 09:50:41;;;;;;;29.23;14.85;;;;;;;22.42;58.46;101937.66;4993229;28;20046;-76
2022/10/18 09:53:19;;;;;;;28.70;15.05;;;;;;;22.63;57.99;101941.78;4995452;28;20519;-77
2022/10/18 09:56:06;;;;;;;24.00;13.30;;;;;;;22.86;58.30;101931.22;4995211;28;20035;-76
2022/10/18 09:58:43;;;;;;;25.63;13.63;;;;;;;22.94;57.38;101923.97;4991522;28;20069;-78
2022/10/18 10:01:18;;;;;;;24.73;12.65;;;;;;;22.94;57.81;101918.41;4982251;28;20045;-75
2022/10/18 10:03:46;;;;;;;20.92;12.15;;;;;;;22.89;57.58;101916.59;4993686;28;20053;-75
2022/10/18 10:06:22;;;;;;;27.85;13.52;;;;;;;22.80;58.94;101919.41;4987457;28;20049;-76
2022/10/18 10:08:59;;;;;;;26.15;13.57;;;;;;;22.99;58.54;101918.22;4992440;28;20055;-75
2022/10/18 10:11:44;;;;;;;28.00;13.10;;;;;;;22.98;56.83;101912.97;4984640;28;20047;-76
2022/10/18 10:14:16;;;;;;;26.90;13.88;;;;;;;23.16;56.07;101913.75;4986702;28;20504;-76
2022/10/18 10:17:16;;;;;;;24.58;12.00;;;;;;;23.01;56.68;101904.75;4992324;28;20062;-75
2022/10/18 10:20:00;;;;;;;22.92;11.82;;;;;;;23.26;56.37;101906.97;4992239;28;20046;-75
2022/10/18 10:22:37;;;;;;;30.25;13.95;;;;;;;23.33;56.27;101905.31;4993788;28;20060;-75
2022/10/18 10:25:06;;;;;;;25.95;13.30;;;;;;;23.25;55.47;101908.91;4994755;28;20042;-75
2022/10/18 10:27:42;;;;;;;26.35;13.80;;;;;;;23.42;56.40;101901.66;4993523;28;20055;-75
2022/10/18 10:30:24;;;;;;;30.17;12.75;;;;;;;23.42;55.60;101904.44;4992805;28;20500;-75
2022/10/18 10:32:53;;;;;;;23.48;12.50;;;;;;;23.44;55.39;101902.13;4994934;28;20070;-75
2022/10/18 10:35:29;;;;;;;24.13;12.32;;;;;;;23.62;55.63;101897.28;4993986;28;20057;-75
2022/10/18 10:38:28;;;;;;;23.02;11.55;;;;;;;23.93;54.24;101890.47;4990314;28;20054;-76
2022/10/18 10:40:56;;;;;;;29.20;12.90;;;;;;;23.90;54.67;101891.16;4990770;28;20055;-75
2022/10/18 10:43:30;;;;;;;24.25;12.32;;;;;;;24.09;54.08;101887.91;4980303;28;20397;-75
2022/10/18 10:46:17;;;;;;;18.92;10.73;;;;;;;24.05;53.82;101883.31;4988525;28;20050;-75
2022/10/18 10:48:50;;;;;;;16.27;9.18;;;;;;;24.21;52.99;101878.78;4994220;28;20038;-76
2022/10/18 10:51:35;;;;;;;18.15;9.38;;;;;;;24.18;51.85;101864.66;4993917;28;20051;-78
2022/10/18 10:54:10;;;;;;;13.38;8.05;;;;;;;24.25;51.52;101867.72;4989384;28;20397;-77
2022/10/18 10:57:02;;;;;;;13.75;7.85;;;;;;;24.43;51.29;101857.16;4992920;28;20050;-77
2022/10/18 10:59:39;;;;;;;12.25;7.20;;;;;;;24.62;49.88;101848.25;4991377;28;20055;-76
2022/10/18 11:02:16;;;;;;;11.68;6.90;;;;;;;24.72;48.89;101848.97;4991315;28;20046;-75
2022/10/18 11:04:46;;;;;;;10.52;6.47;;;;;;;24.93;47.46;101852.53;4993212;28;20038;-76
2022/10/18 11:07:32;;;;;;;14.20;6.97;;;;;;;24.82;47.10;101838.16;4992940;28;20058;-76
2022/10/18 11:10:14;;;;;;;12.07;6.70;;;;;;;24.83;47.05;101834.22;4993737;28;20493;-76
2022/10/18 11:12:48;;;;;;;10.68;7.30;;;;;;;24.99;46.84;101827.09;4992608;28;20058;-76
2022/10/18 11:15:37;;;;;;;;;;;;;;;24.85;47.48;101819.88;4994261;28;20393;-76
2022/10/18 11:18:13;;;;;;;10.93;6.88;;;;;;;24.80;47.98;101825.66;4991339;28;19922;-75
2022/10/18 11:20:46;;;;;;;11.95;7.07;;;;;;;24.85;47.00;101817.06;4993363;28;20050;-76
2022/10/18 11:23:14;;;;;;;15.40;6.70;;;;;;;25.16;47.66;101815.66;4992326;28;20402;-76
2022/10/18 11:25:54;;;;;;;14.18;7.85;;;;;;;25.06;48.17;101810.53;4992991;28;20054;-75
2022/10/18 11:28:49;;;;;;;10.63;6.95;;;;;;;24.94;46.58;101798.16;4991927;28;20054;-76
2022/10/18 11:31:22;;;;;;;10.85;6.75;;;;;;;24.96;47.46;101797.81;4993540;28;20042;-76
2022/10/18 11:34:08;;;;;;;10.10;7.00;;;;;;;25.02;47.16;101798.41;4992031;28;20524;-76
2022/10/18 11:37:13;;;;;;;13.05;6.80;;;;;;;25.26;47.23;101791.16;4992724;28;20075;-76
2022/10/18 11:39:58;;;;;;;11.75;6.95;;;;;;;25.32;46.01;101790.53;4993278;28;20054;-77
2022/10/18 11:42:38;;;;;;;11.05;6.72;;;;;;;25.52;44.14;101775.91;4979271;28;20058;-76
2022/10/18 11:45:15;;;;;;;11.25;7.28;;;;;;;25.66;44.48;101769.97;4993109;28;20504;-76
2022/10/18 11:47:49;;;;;;;13.05;7.28;;;;;;;25.57;43.08;101758.91;4992828;28;20046;-76
2022/10/18 11:50:39;;;;;;;9.93;6.85;;;;;;;25.61;44.18;101759.81;4993040;28;20057;-76
2022/10/18 11:53:10;;;;;;;12.52;7.45;;;;;;;25.64;45.21;101761.91;4993416;28;20393;-77
2022/10/18 11:56:15;;;;;;;14.60;7.75;;;;;;;25.62;45.29;101753.03;4993151;28;20042;-77
2022/10/18 11:58:54;;;;;;;18.10;8.95;;;;;;;25.55;45.59;101756.44;4980360;28;20058;-76
2022/10/18 12:01:36;;;;;;;14.52;8.32;;;;;;;25.60;46.14;101747.78;4993075;28;20076;-77
2022/10/18 12:04:21;;;;;;;18.92;9.90;;;;;;;25.71;46.15;101750.88;4991965;28;20436;-77
2022/10/18 12:06:53;;;;;;;15.40;8.88;;;;;;;25.58;47.27;101740.91;4992560;28;20050;-76
2022/10/18 12:09:42;;;;;;;17.75;9.68;;;;;;;25.51;47.33;101733.06;4992577;28;20520;-77
2022/10/18 12:12:17;;;;;;;18.38;10.45;;;;;;;25.60;47.13;101728.16;4992950;28;20501;-77
2022/10/18 12:15:04;;;;;;;20.73;11.00;;;;;;;25.70;47.23;101729.66;4988184;28;20046;-75
2022/10/18 12:17:39;;;;;;;22.58;10.13;;;;;;;25.86;47.56;101723.28;4987661;28;20050;-76
2022/10/18 12:20:28;;;;;;;23.95;12.13;;;;;;;25.94;46.88;101725.09;4987846;28;20046;-75
2022/10/18 12:23:17;;;;;;;20.92;11.05;;;;;;;25.70;47.17;101721.22;4982612;28;20058;-75
2022/10/18 12:25:49;;;;;;;22.05;11.85;;;;;;;25.65;47.37;101712.28;4980825;28;20055;-75
2022/10/18 12:28:54;;;;;;;25.20;11.95;;;;;;;26.00;46.78;101717.25;4986650;28;20409;-77
2022/10/18 12:31:49;;;;;;;20.27;12.23;;;;;;;25.83;46.65;101707.16;4978348;28;20051;-75
2022/10/18 12:34:35;;;;;;;21.55;11.93;;;;;;;25.62;47.66;101702.59;5000682;28;20046;-75
2022/10/18 12:37:26;;;;;;;22.23;12.75;;;;;;;25.56;48.12;101695.63;4976502;28;20499;-75
2022/10/18 12:40:20;;;;;;;22.13;11.50;;;;;;;25.92;48.42;101692.97;4986301;28;20041;-76
2022/10/18 12:42:50;;;;;;;23.35;13.35;;;;;;;25.94;47.75;101691.44;4981542;28;20420;-76
2022/10/18 12:45:26;;;;;;;28.27;14.90;;;;;;;26.01;48.07;101683.22;4973923;28;20043;-76
2022/10/18 12:47:58;;;;;;;26.55;14.80;;;;;;;26.10;48.25;101683.03;4971124;28;20046;-77
2022/10/18 12:50:33;;;;;;;27.48;13.45;;;;;;;26.12;47.18;101685.50;4975176;28;20489;-77
2022/10/18 12:53:23;;;;;;;28.92;13.68;;;;;;;26.20;48.19;101686.50;4989125;28;20059;-76
2022/10/18 12:55:52;;;;;;;30.88;14.98;;;;;;;26.13;47.35;101676.72;4985619;28;20043;-77
2022/10/18 12:58:22;;;;;;;28.40;14.98;;;;;;;26.16;47.58;101675.19;4979028;28;20404;-77
2022/10/18 13:00:50;;;;;;;27.88;14.57;;;;;;;26.14;47.62;101678.34;4992379;28;20416;-76
2022/10/18 13:03:24;;;;;;;27.88;14.60;;;;;;;26.06;45.81;101667.31;4976174;28;20050;-76
2022/10/18 13:05:56;;;;;;;31.45;14.30;;;;;;;26.11;46.87;101667.03;4977592;28;20050;-77
2022/10/18 13:08:30;;;;;;;29.08;14.40;;;;;;;26.05;47.84;101663.66;4976087;28;20055;-76
2022/10/18 13:11:06;;;;;;;28.00;15.00;;;;;;;26.07;49.15;101654.91;4977914;28;20062;-78
2022/10/18 13:14:07;;;;;;;27.67;15.55;;;;;;;25.88;48.06;101650.81;4987770;28;20051;-78
2022/10/18 13:16:56;;;;;;;24.90;12.75;;;;;;;25.98;49.19;101658.72;4987419;28;20050;-77
2022/10/18 13:19:38;;;;;;;27.25;14.40;;;;;;;25.82;47.42;101652.28;4984656;28;20065;-76
2022/10/18 13:22:43;;;;;;;25.23;13.70;;;;;;;25.58;48.35;101649.25;4996021;28;20042;-77
2022/10/18 13:25:36;;;;;;;36.17;17.05;;;;;;;25.79;48.22;101647.41;4993500;28;20049;-77
2022/10/18 13:28:30;;;;;;;28.13;14.52;;;;;;;25.67;48.93;101643.47;4988645;28;20054;-77
2022/10/18 13:31:07;;;;;;;26.92;13.80;;;;;;;25.71;49.09;101649.19;4967346;28;20061;-76
2022/10/18 13:33:38;;;;;;;26.17;14.52;;;;;;;25.60;48.60;101638.50;4978793;28;20046;-77
2022/10/18 13:36:24;;;;;;;30.00;15.15;;;;;;;25.60;47.67;101637.66;4983054;28;20043;-75
2022/10/18 13:38:54;;;;;;;32.45;14.43;;;;;;;25.48;48.71;101635.72;4975507;28;20066;-76
2022/10/18 13:41:51;;;;;;;28.20;14.38;;;;;;;25.56;48.31;101636.78;4977490;28;20505;-76
2022/10/18 13:44:42;;;;;;;31.58;15.38;;;;;;;25.66;48.04;101636.22;4988146;28;20494;-77
2022/10/18 13:47:31;;;;;;;31.08;16.67;;;;;;;25.44;48.72;101632.81;4993098;28;20069;-77
2022/10/18 13:50:23;;;;;;;31.13;16.25;;;;;;;25.62;48.48;101630.53;4984295;28;20505;-76
2022/10/18 13:53:28;;;;;;;33.75;15.63;;;;;;;25.45;48.02;101637.25;4987867;28;20058;-77
2022/10/18 13:55:59;;;;;;;33.05;15.57;;;;;;;25.48;48.84;101633.72;4995128;28;20050;-78
2022/10/18 13:58:44;;;;;;;29.90;15.90;;;;;;;25.36;49.42;101626.19;4994844;28;20061;-78
2022/10/18 14:01:46;;;;;;;29.45;15.55;;;;;;;25.48;50.19;101630.13;4984717;28;20046;-77
2022/10/18 14:04:35;;;;;;;33.58;18.55;;;;;;;25.51;49.80;101620.97;4976059;28;20055;-75
2022/10/18 14:07:05;;;;;;;31.85;16.58;;;;;;;25.45;49.37;101626.03;4990453;28;20046;-76
2022/10/18 14:09:46;;;;;;;32.70;18.17;;;;;;;25.49;48.75;101632.56;4991783;28;20038;-75
2022/10/18 14:12:32;;;;;;;32.25;16.88;;;;;;;25.60;48.73;101626.44;4982013;28;20047;-75
2022/10/18 14:15:17;;;;;;;40.40;18.35;;;;;;;25.65;48.64;101617.78;4987362;28;20401;-75
2022/10/18 14:17:54;;;;;;;35.65;17.10;;;;;;;25.70;47.88;101620.31;4990973;28;20046;-76
2022/10/18 14:20:27;;;;;;;44.45;20.08;;;;;;;25.76;48.92;101623.69;4987049;28;20413;-76
2022/10/18 14:23:05;;;;;;;31.95;17.40;;;;;;;25.76;49.47;101626.50;4975050;28;20163;-76
2022/10/18 14:25:36;;;;;;;39.13;18.38;;;;;;;25.79;50.05;101622.97;4986563;28;20041;-76
2022/10/18 14:28:15;;;;;;;34.28;18.02;;;;;;;25.64;49.93;101627.38;4986200;28;20046;-76
2022/10/18 14:31:05;;;;;;;41.97;20.08;;;;;;;25.58;48.96;101628.81;4994115;28;20049;-76
2022/10/18 14:33:41;;;;;;;37.15;18.85;;;;;;;25.55;50.30;101618.34;4995111;28;20547;-77
2022/10/18 14:36:19;;;;;;;35.45;17.30;;;;;;;25.40;49.79;101619.88;4994283;28;20057;-76
2022/10/18 14:39:00;;;;;;;36.75;18.55;;;;;;;25.46;49.49;101616.47;4995092;28;20053;-77
2022/10/18 14:41:37;;;;;;;36.10;18.58;;;;;;;25.30;49.57;101619.22;4993746;28;20054;-76
2022/10/18 14:44:26;;;;;;;37.72;18.10;;;;;;;25.09;50.28;101606.22;4994218;28;20050;-77
2022/10/18 14:47:13;;;;;;;35.35;18.02;;;;;;;24.98;51.10;101601.47;4988941;28;20057;-77
2022/10/18 14:49:45;;;;;;;38.25;18.67;;;;;;;24.87;51.94;101598.38;4993998;28;20065;-77
2022/10/18 14:52:17;;;;;;;40.58;19.95;;;;;;;24.81;51.89;101604.22;4994383;28;20053;-76
2022/10/18 14:54:45;;;;;;;43.13;20.98;;;;;;;24.82;52.04;101600.25;4993522;28;20061;-76
2022/10/18 14:57:21;;;;;;;37.78;18.73;;;;;;;24.90;52.33;101603.25;4993572;28;20062;-76
2022/10/18 14:59:57;;;;;;;36.35;18.35;;;;;;;24.85;51.84;101598.72;4984328;28;20055;-75
2022/10/18 15:02:28;;;;;;;35.97;18.15;;;;;;;24.72;51.88;101594.31;4972722;28;20054;-75
2022/10/18 15:05:18;;;;;;;37.92;17.95;;;;;;;24.67;51.60;101596.16;4981799;28;20405;-76
2022/10/18 15:07:47;;;;;;;34.22;18.15;;;;;;;24.68;51.58;101597.78;4974442;28;20055;-76
2022/10/18 15:10:42;;;;;;;35.00;18.42;;;;;;;24.67;52.39;101589.75;4971135;28;20046;-76
2022/10/18 15:13:12;;;;;;;31.23;17.10;;;;;;;24.64;51.43;101588.47;4982233;28;20050;-77
2022/10/18 15:15:40;;;;;;;33.60;16.98;;;;;;;24.63;51.98;101586.84;4974001;28;20043;-76
2022/10/18 15:18:34;;;;;;;31.98;17.08;;;;;;;24.41;52.39;101591.78;4988865;28;20489;-78
2022/10/18 15:21:22;;;;;;;33.80;18.33;;;;;;;24.41;52.23;101583.38;4992384;28;20405;-77
2022/10/18 15:23:51;;;;;;;34.08;16.63;;;;;;;24.26;52.90;101584.09;4993036;28;20302;-78
2022/10/18 15:26:23;;;;;;;32.47;15.63;;;;;;;24.28;53.01;101584.53;4992950;28;20404;-78
2022/10/18 15:28:55;;;;;;;31.27;15.88;;;;;;;24.31;51.92;101578.25;4982191;28;20046;-78
2022/10/18 15:31:33;;;;;;;32.63;15.68;;;;;;;24.26;51.86;101575.69;4993287;28;20051;-78
2022/10/18 15:34:09;;;;;;;30.00;14.00;;;;;;;24.15;52.47;101576.16;4992825;28;20038;-78
2022/10/18 15:36:37;;;;;;;29.98;15.23;;;;;;;24.15;52.55;101587.34;4992551;28;20055;-78
2022/10/18 15:39:13;;;;;;;31.23;15.68;;;;;;;24.01;54.07;101575.66;4990933;28;20038;-78
2022/10/18 15:42:27;;;;;;;30.80;15.45;;;;;;;24.00;54.11;101580.44;4990757;28;20063;-78
2022/10/18 15:44:55;;;;;;;35.38;17.00;;;;;;;24.02;54.62;101580.91;4979607;28;20382;-77
2022/10/18 15:47:23;;;;;;;36.50;18.17;;;;;;;23.99;54.99;101572.38;4993065;28;20054;-78
2022/10/18 15:49:57;;;;;;;45.45;18.90;;;;;;;23.89;55.95;101571.69;4992909;28;20043;-78
2022/10/18 15:52:29;;;;;;;34.60;18.48;;;;;;;23.78;56.51;101570.53;4990153;28;20042;-76
2022/10/18 15:55:32;;;;;;;37.65;18.45;;;;;;;23.66;57.64;101574.09;4987980;28;20042;-77
2022/10/18 15:58:05;;;;;;;33.38;16.63;;;;;;;23.59;57.35;101557.91;4990005;28;20046;-76
2022/10/18 16:00:33;;;;;;;41.03;20.85;;;;;;;23.55;58.03;101559.75;4987915;28;20412;-78
2022/10/18 16:03:10;;;;;;;40.85;20.35;;;;;;;23.49;58.73;101561.97;4990938;28;20049;-78
2022/10/18 16:05:39;;;;;;;39.65;20.15;;;;;;;23.39;59.19;101570.78;4990866;28;20057;-77
2022/10/18 16:08:18;;;;;;;43.58;20.83;;;;;;;23.33;59.00;101567.41;4984903;28;20536;-77
2022/10/18 16:10:53;;;;;;;33.67;17.35;;;;;;;23.29;59.07;101563.63;4988461;28;20046;-78
2022/10/18 16:13:22;;;;;;;36.47;16.85;;;;;;;23.22;59.36;101561.38;4988925;28;20057;-77
2022/10/18 16:15:59;;;;;;;30.70;16.58;;;;;;;23.16;59.41;101556.38;4990812;28;20038;-77
2022/10/18 16:18:32;;;;;;;43.40;21.02;;;;;;;23.06;61.40;101564.00;4986945;28;20053;-78
2022/10/18 16:21:06;;;;;;;36.53;16.83;;;;;;;22.97;61.04;101557.66;4989175;28;20061;-78
2022/10/18 16:23:41;;;;;;;32.90;16.88;;;;;;;22.94;60.68;101555.56;4989571;28;20058;-78
2022/10/18 16:26:16;;;;;;;38.13;17.70;;;;;;;22.87;61.30;101555.31;4988005;28;20050;-77
2022/10/18 16:28:49;;;;;;;39.03;17.80;;;;;;;22.78;61.95;101556.19;4989500;28;20051;-78
2022/10/18 16:31:20;;;;;;;36.53;18.23;;;;;;;22.73;62.10;101561.97;4990743;28;20050;-77
2022/10/18 16:33:49;;;;;;;36.58;18.63;;;;;;;22.67;62.88;101563.31;4985818;28;20047;-76
2022/10/18 16:36:21;;;;;;;36.15;18.67;;;;;;;22.59;64.07;101564.22;4991036;28;20396;-77
2022/10/18 16:38:53;;;;;;;46.60;19.13;;;;;;;22.54;64.04;101560.44;4991703;28;20527;-76
2022/10/18 16:41:22;;;;;;;41.13;18.27;;;;;;;22.46;65.31;101575.25;4991577;28;20051;-76
2022/10/18 16:43:50;;;;;;;44.67;19.65;;;;;;;22.45;64.79;101576.41;4991909;28;20392;-75
2022/10/18 16:46:21;;;;;;;36.22;18.17;;;;;;;22.38;64.87;101576.13;4992004;28;20046;-77
2022/10/18 16:48:50;;;;;;;39.75;19.90;;;;;;;22.23;66.02;101571.91;4991180;28;20049;-76
2022/10/18 16:51:19;;;;;;;39.40;18.83;;;;;;;22.33;65.81;101587.47;4991834;28;20061;-76
2022/10/18 16:53:47;;;;;;;35.10;18.02;;;;;;;22.33;65.70;101582.69;4991631;28;20050;-76
2022/10/18 16:56:18;;;;;;;45.33;21.30;;;;;;;22.25;65.29;101595.53;4991786;28;20051;-76
2022/10/18 16:58:47;;;;;;;43.88;19.77;;;;;;;22.22;66.29;101590.63;4990830;28;20058;-76
2022/10/18 17:01:17;;;;;;;43.80;21.25;;;;;;;22.28;66.23;101586.50;4991961;28;20061;-77
2022/10/18 17:03:46;;;;;;;44.75;20.05;;;;;;;22.19;66.08;101594.09;4991758;28;20046;-77
2022/10/18 17:06:26;;;;;;;42.33;21.73;;;;;;;22.23;66.03;101597.00;4991239;28;20051;-76
2022/10/18 17:08:55;;;;;;;42.58;20.48;;;;;;;22.12;66.73;101599.38;4992282;28;20703;-76
2022/10/18 17:11:25;;;;;;;46.22;21.85;;;;;;;22.07;66.56;101596.75;4991394;28;20061;-77
2022/10/18 17:13:53;;;;;;;44.15;21.75;;;;;;;21.98;67.46;101605.16;4992478;28;20050;-77
2022/10/18 17:16:30;;;;;;;51.50;20.73;;;;;;;22.02;67.11;101612.53;4991303;28;20077;-77
2022/10/18 17:19:01;;;;;;;40.83;19.75;;;;;;;22.06;67.09;101611.84;4991693;28;20073;-77
2022/10/18 17:21:30;;;;;;;46.42;21.35;;;;;;;22.05;67.05;101613.00;4991783;28;20042;-77
2022/10/18 17:24:00;;;;;;;44.63;20.65;;;;;;;22.04;67.44;101608.59;4991199;28;20065;-77
2022/10/18 17:26:27;;;;;;;46.25;21.92;;;;;;;21.77;68.17;101605.06;4990628;28;20055;-76
2022/10/18 17:28:59;;;;;;;46.20;20.08;;;;;;;21.78;68.21;101606.69;4991755;28;20510;-77
2022/10/18 17:31:29;;;;;;;45.88;20.73;;;;;;;21.79;68.43;101613.94;4991493;28;20050;-76
2022/10/18 17:34:00;;;;;;;41.17;21.30;;;;;;;21.66;68.88;101610.97;4989630;28;20059;-76
2022/10/18 17:36:30;;;;;;;51.20;22.15;;;;;;;21.54;69.52;101613.59;4988866;28;20050;-76
2022/10/18 17:38:58;;;;;;;52.08;21.85;;;;;;;21.44;69.71;101617.53;4991385;28;20054;-76
2022/10/18 17:41:26;;;;;;;46.45;20.80;;;;;;;21.41;70.25;101621.00;4987004;28;20042;-77
2022/10/18 17:43:54;;;;;;;46.58;21.58;;;;;;;21.30;70.58;101626.06;4994968;28;20487;-76
2022/10/18 17:46:22;;;;;;;44.65;22.15;;;;;;;21.24;70.25;101628.22;4995261;28;20405;-77